Forside
METAR-TAF:

METAR-TAF

Lufthavne :

Kirkwall, Skotland

Breddekreds: 58-57N, længdekreds: 002-54W, højde: 21 m

Aktuelle vejr

Denne rapport blev lavet for 40 minutter siden, kl. 12:20 UTC
Vind 21 kt fra vestnordvest med vindstød på up til 31 kt
Temperatur 9°C
Fugtighed 76%
Tryk 1030 hPa
Sigt 10 km eller mere
Nogle få skyer i en højde af 1500 ft
Brudte skyer i en højde af 3000 ft
byger i nærheden

METAR: EGPA 311220Z 29021G31KT 9999 VCSH FEW015 BKN030 09/05 Q1030

Tid: 14:00 (13:00 UTC)

Vejrudsigter

Denne rapport blev lavet for 16 minutter siden, kl. 12:44 UTC
Foreløbig gælder fra 31 på 12 UTC til 31 på 21 UTC
Vind 17 kt fra vestnordvest
Sigt 10 km eller mere
Spredte skyer i en højde af 2500 ft
Midlertidig
fra 31 på 12 UTC til 31 på 21 UTC
Vind 21 kt fra vestnordvest med vindstød på up til 31 kt
Sigt: 6000 m
Brudte skyer i en højde af 1400 ft
regnbyger

TAF: EGPA 311244Z 3112/3121 30017KT 9999 SCT025 TEMPO 3112/3121 29021G31KT 6000 SHRA BKN014

Vejrobservationer og prognoser fra mere end 4000 lufthavne (METAR og TAF).

De gule og røde prikker repræsenterer de meteorologiske stationer.

Flyt musen over at se navnet på stationen.

Så klik over at se vejr observationer og prognoser.

At skifte det kort: Klik på de grønne knapper med et sort kors for at zoome ind; på den grønne knap med en bindestreg for at zoome ud; eller på de grønne pile for tilstødende kort.


METAR-TAF: